Nearby METAR Reports



KADS - Dallas/Addison, Texas, USA
Distance from station: SSW 10mi, 16km
Updated: Sat, 07-Dec-2019 8:35pm CST
Clear
Clear
 Wind from SE
Wind: SE 7 mph , 11 km/h
Temperature: 55°F , 13°C
Dew Point: 43°F , 6°C
Humidity: 63%
Barometer: 30.16 inHg , 1021.3 hPa
Clouds: Clear
Visibility: 10 miles , 16 km
2019/12/08 02:35 KADS 080235Z AUTO 14006KT 10SM CLR 13/06 A3016 RMK AO2 T01250062
KTKI - Mckinney, Texas, USA
Distance from station: ENE 11mi, 18km
Updated: Sat, 07-Dec-2019 7:53pm CST
Clear
Clear
 Wind from SSE
Wind: SSE 3 mph , 6 km/h
Temperature: 48°F , 9°C
Dew Point: 41°F , 5°C
Humidity: 76%
Barometer: 30.16 inHg , 1021.3 hPa
Clouds: Clear
Visibility: 10 miles , 16 km
2019/12/08 01:53 KTKI 080153Z 15003KT 10SM CLR 09/05 A3016 RMK AO2 SLP226 T00940050
 
KDAL - Dallas/Love Fld, Texas, USA
Distance from station: SSW 18mi, 30km
Updated: Sat, 07-Dec-2019 7:53pm CST
Clear
Clear
 Wind from ESE
Wind: ESE 6 mph , 9 km/h
Temperature: 55°F , 13°C
Dew Point: 43°F , 6°C
Humidity: 63%
Barometer: 30.16 inHg , 1021.3 hPa
Clouds: Clear
Visibility: 10 miles , 16 km
2019/12/08 01:53 KDAL 080153Z 11005KT 10SM CLR 13/06 A3016 RMK AO2 SLP212 T01330061 $
KDFW - Dallas/Ft Worth, Texas, USA
Distance from station: SW 21mi, 34km
Updated: Sat, 07-Dec-2019 7:53pm CST
Few Clouds
Few Clouds
 Wind from SE
Wind: SE 6 mph , 9 km/h
Temperature: 52°F , 11°C
Dew Point: 41°F , 5°C
Humidity: 67%
Barometer: 30.14 inHg , 1020.7 hPa
Clouds: Few Clouds
Visibility: 10 miles , 16 km
Cloud details: Few Clouds 30000 ft
2019/12/08 01:53 KDFW 080153Z 14005KT 10SM FEW300 11/05 A3014 RMK AO2 SLP207 T01110050
 
KF46 - Rockwall, Texas, USA
Distance from station: ESE 22mi, 35km
Updated: Sat, 07-Dec-2019 8:35pm CST
Clear
Clear
 Wind from SE
Wind: SE 5 mph , 7 km/h
Temperature: 52°F , 11°C
Dew Point: 45°F , 7°C
Humidity: 77%
Barometer: 30.16 inHg , 1021.3 hPa
Clouds: Clear
Visibility: 10 miles , 16 km
2019/12/08 02:35 KF46 080235Z AUTO 14004KT 10SM CLR 11/07 A3016 RMK AO2 T01110072
KDTO - Denton, Texas, USA
Distance from station: WNW 27mi, 43km
Updated: Sat, 07-Dec-2019 7:53pm CST
Clear
Clear
 Wind from SSE
Wind: SSE 5 mph , 7 km/h
Temperature: 46°F , 8°C
Wind Chill: 44°F , 7°C
Dew Point: 37°F , 3°C
Humidity: 71%
Barometer: 30.16 inHg , 1021.3 hPa
Clouds: Clear
Visibility: 10 miles , 16 km
2019/12/08 01:53 KDTO 080153Z 15004KT 10SM CLR 08/03 A3016 RMK AO2 SLP212 T00830033
 
KHQZ - Mesquite, Texas, USA
Distance from station: SSE 28mi, 44km
Updated: Sat, 07-Dec-2019 7:50pm CST
Clear
Clear
 Wind from calm
Wind: Calm
Temperature: 50°F , 10°C
Dew Point: 43°F , 6°C
Humidity: 76%
Barometer: 30.18 inHg , 1022 hPa
Clouds: Clear
Visibility: 10 miles , 16 km
2019/12/08 01:50 KHQZ 080150Z 00000KT 10SM CLR 10/06 A3018
KRBD - Dallas/Redbird, Texas, USA
Distance from station: SSW 30mi, 48km
Updated: Sat, 07-Dec-2019 7:53pm CST
Clear
Clear
 Wind from SSE
Wind: SSE 5 mph , 7 km/h
Temperature: 55°F , 13°C
Dew Point: 43°F , 6°C
Humidity: 63%
Barometer: 30.16 inHg , 1021.3 hPa
Clouds: Clear
Visibility: 10 miles , 16 km
2019/12/08 01:53 KRBD 080153Z 15004KT 10SM CLR 13/06 A3016 RMK AO2 SLP211 T01280056
 
KGPM - Grand Prairie, Texas, USA
Distance from station: SSW 33mi, 53km
Updated: Sat, 07-Dec-2019 8:35pm CST
Clear
Clear
 Wind from calm
Wind: Calm
Temperature: 54°F , 12°C
Dew Point: 43°F , 6°C
Humidity: 67%
Barometer: 30.16 inHg , 1021.3 hPa
Clouds: Clear
Visibility: 10 miles , 16 km
2019/12/08 02:35 KGPM 080235Z AUTO 00000KT 10SM CLR 12/06 A3016 RMK AO2 T01170055
KAFW - Ft Worth/Allianc, Texas, USA
Distance from station: WSW 34mi, 55km
Updated: Sat, 07-Dec-2019 7:53pm CST
Few Clouds
Few Clouds
 Wind from SSE
Wind: SSE 5 mph , 7 km/h
Temperature: 54°F , 12°C
Dew Point: 37°F , 3°C
Humidity: 54%
Barometer: 30.15 inHg , 1021 hPa
Clouds: Few Clouds
Visibility: 10 miles , 16 km
Cloud details: Few Clouds 25000 ft
2019/12/08 01:53 KAFW 080153Z 15004KT 10SM FEW250 12/03 A3015 RMK AO2 SLP213 T01220033
 
KLNC - Lancaster, Texas, USA
Distance from station: S 36mi, 58km
Updated: Sat, 07-Dec-2019 8:35pm CST
Clear
Clear
 Wind from calm
Wind: Calm
Temperature: 48°F , 9°C
Dew Point: 43°F , 6°C
Humidity: 82%
Barometer: 30.17 inHg , 1021.7 hPa
Clouds: Clear
Visibility: 10 miles , 16 km
2019/12/08 02:35 KLNC 080235Z AUTO 00000KT 10SM CLR 09/06 A3017 RMK AO2 T00940055
KGKY - Arlington, Texas, USA
Distance from station: SSW 36mi, 59km
Updated: Sat, 07-Dec-2019 7:53pm CST
Clear
Clear
 Wind from SSE
Wind: SSE 3 mph , 6 km/h
Temperature: 46°F , 8°C
Dew Point: 39°F , 4°C
Humidity: 76%
Barometer: 30.16 inHg , 1021.3 hPa
Clouds: Clear
Visibility: 10 miles , 16 km
2019/12/08 01:53 KGKY 080153Z 15003KT 10SM CLR 08/04 A3016 RMK AO2 SLP214 T00780039
 
KTRL - Terrell, Texas, USA
Distance from station: SE 39mi, 63km
Updated: Sat, 07-Dec-2019 7:53pm CST
Clear
Clear
 Wind from calm
Wind: Calm
Temperature: 52°F , 11°C
Dew Point: 45°F , 7°C
Humidity: 77%
Barometer: 30.18 inHg , 1022 hPa
Clouds: Clear
Visibility: 10 miles , 16 km
2019/12/08 01:53 KTRL 080153Z AUTO 00000KT 10SM CLR 11/07 A3018 RMK AO2 SLP219 T01060067
KGVT - Greenville/Major, Texas, USA
Distance from station: E 40mi, 64km
Updated: Sat, 07-Dec-2019 8:30pm CST
Clear
Clear
 Wind from calm
Wind: Calm
Temperature: 46°F , 8°C
Dew Point: 43°F , 6°C
Humidity: 87%
Barometer: 30.18 inHg , 1022 hPa
Clouds: Clear
Visibility: 10 miles , 16 km
2019/12/08 02:30 KGVT 080230Z AUTO 00000KT 10SM CLR 08/06 A3018 RMK AO2
 
KFTW - Fort Worth, Texas, USA
Distance from station: WSW 40mi, 65km
Updated: Sat, 07-Dec-2019 7:53pm CST
Clear
Clear
 Wind from SE
Wind: SE 6 mph , 9 km/h
Temperature: 54°F , 12°C
Dew Point: 39°F , 4°C
Humidity: 58%
Barometer: 30.15 inHg , 1021 hPa
Clouds: Clear
Visibility: 10 miles , 16 km
2019/12/08 01:53 KFTW 080153Z 14005KT 10SM CLR 12/04 A3015 RMK AO2 SLP211 T01170039
KGYI - Sherman/Denison, Texas, USA
Distance from station: N 43mi, 69km
Updated: Sat, 07-Dec-2019 8:35pm CST
Clear
Clear
 Wind from SE
Wind: SE 7 mph , 11 km/h
Temperature: 50°F , 10°C
Wind Chill: 47°F , 8°C
Dew Point: 43°F , 6°C
Humidity: 76%
Barometer: 30.16 inHg , 1021.3 hPa
Clouds: Clear
Visibility: 10 miles , 16 km
2019/12/08 02:35 KGYI 080235Z AUTO 13006KT 10SM CLR 10/06 A3016 RMK AO2 T01030055
 
KNFW - Fort Worth Nas, Texas, USA
Distance from station: WSW 45mi, 73km
Updated: Sat, 07-Dec-2019 4:52pm CST
NOT Current
Mostly cloudy
Mostly cloudy
 Wind from ESE
Wind: ESE 5 mph , 7 km/h
Temperature: 63°F , 17°C
Dew Point: 36°F , 2°C
Humidity: 37%
Barometer: 30.17 inHg , 1021.7 hPa
Clouds: Mostly cloudy
Visibility: 10 miles , 16 km
Cloud details: Few Clouds 22000 ft
Mostly cloudy 30000 ft
2019/12/07 22:52 KNFW 072252Z 11004KT 10SM FEW220 BKN300 17/02 A3017 RMK SLP199 T01730022 VISNO N
KGLE - Gainesville, Texas, USA
Distance from station: NW 46mi, 74km
Updated: Sat, 07-Dec-2019 8:35pm CST
Clear
Clear
 Wind from SE
Wind: SE 5 mph , 7 km/h
Temperature: 48°F , 9°C
Wind Chill: 46°F , 8°C
Dew Point: 36°F , 2°C
Humidity: 62%
Barometer: 30.15 inHg , 1021 hPa
Clouds: Clear
Visibility: 10 miles , 16 km
2019/12/08 02:35 KGLE 080235Z AUTO 14004KT 10SM CLR 09/02 A3015 RMK AO2 T00850023
 
KJWY - Midlothian/Wax, Texas, USA
Distance from station: SSW 46mi, 74km
Updated: Sat, 07-Dec-2019 8:35pm CST
Clear
Clear
 Wind from calm
Wind: Calm
Temperature: 48°F , 9°C
Dew Point: 43°F , 6°C
Humidity: 82%
Barometer: 30.18 inHg , 1022 hPa
Clouds: Clear
Visibility: 10 miles , 16 km
2019/12/08 02:35 KJWY 080235Z AUTO 00000KT 10SM CLR 09/06 A3018 RMK AO2 T00910059
KFWS - Fort Worth/88d, Texas, USA
Distance from station: SW 49mi, 79km
Updated: Sat, 07-Dec-2019 8:35pm CST
Clear
Clear
 Wind from calm
Wind: Calm
Temperature: 48°F , 9°C
Dew Point: 39°F , 4°C
Humidity: 71%
Barometer: 30.16 inHg , 1021.3 hPa
Clouds: Clear
Visibility: 10 miles , 16 km
2019/12/08 02:35 KFWS 080235Z AUTO 00000KT 10SM CLR 09/04 A3016 RMK AO2 T00870038